createdAt,value
2022-09-28T00:00:07.734Z,8.68
2022-09-28T00:05:08.823Z,8.67
2022-09-28T00:10:10.922Z,8.68
2022-09-28T00:15:12.319Z,8.7
2022-09-28T00:20:13.949Z,8.72
2022-09-28T00:25:15.828Z,8.68
2022-09-28T00:30:18.026Z,8.68
2022-09-28T00:35:19.457Z,8.72
2022-09-28T00:40:20.690Z,8.76
2022-09-28T00:45:22.758Z,8.8
2022-09-28T00:50:24.817Z,8.81
2022-09-28T00:55:26.528Z,8.83
2022-09-28T01:00:28.024Z,8.84
2022-09-28T01:05:29.983Z,8.89
2022-09-28T01:10:31.269Z,8.85
2022-09-28T01:15:32.604Z,8.74
2022-09-28T01:20:34.455Z,8.71
2022-09-28T01:25:36.051Z,8.64
2022-09-28T01:30:37.588Z,8.56
2022-09-28T01:35:38.869Z,8.52
2022-09-28T01:40:40.585Z,8.56
2022-09-28T01:45:41.855Z,8.56
2022-09-28T01:50:43.365Z,8.6
2022-09-28T01:55:44.639Z,8.64
2022-09-28T02:00:46.085Z,8.71
2022-09-28T02:05:47.810Z,8.75
2022-09-28T02:10:49.327Z,8.8
2022-09-28T02:15:50.947Z,8.85
2022-09-28T02:20:52.865Z,8.88
2022-09-28T02:25:54.275Z,8.93
2022-09-28T02:30:56.375Z,8.93
2022-09-28T02:35:57.751Z,8.88
2022-09-28T02:40:59.814Z,8.87
2022-09-28T02:46:01.748Z,8.87
2022-09-28T02:51:02.952Z,8.83
2022-09-28T02:56:04.638Z,8.81
2022-09-28T03:01:06.599Z,8.81
2022-09-28T03:06:08.120Z,8.79
2022-09-28T03:11:09.839Z,8.74
2022-09-28T03:16:11.764Z,8.74
2022-09-28T03:21:13.262Z,8.72
2022-09-28T03:26:14.718Z,8.66
2022-09-28T03:31:16.724Z,8.67
2022-09-28T03:36:18.212Z,8.68
2022-09-28T03:41:19.903Z,8.68
2022-09-28T03:46:22.071Z,8.64
2022-09-28T03:51:23.897Z,8.6
2022-09-28T03:56:25.824Z,8.53
2022-09-28T04:01:28.135Z,8.5
2022-09-28T04:06:29.648Z,8.47
2022-09-28T04:11:42.926Z,8.47
2022-09-28T04:16:32.896Z,8.41
2022-09-28T04:21:34.336Z,8.32
2022-09-28T04:26:36.425Z,8.33
2022-09-28T04:31:37.779Z,8.26
2022-09-28T04:36:39.152Z,8.3
2022-09-28T04:41:40.827Z,8.35
2022-09-28T04:46:42.997Z,8.38
2022-09-28T04:51:44.729Z,8.35
2022-09-28T04:56:46.185Z,8.45
2022-09-28T05:01:47.739Z,8.41
2022-09-28T05:06:49.601Z,8.39
2022-09-28T05:11:51.305Z,8.41
2022-09-28T05:16:53.390Z,8.46
2022-09-28T05:21:54.575Z,8.32
2022-09-28T05:26:56.274Z,8.38
2022-09-28T05:31:58.194Z,8.35
2022-09-28T05:36:59.912Z,8.28
2022-09-28T05:42:01.876Z,8.3
2022-09-28T05:47:09.933Z,8.33
2022-09-28T05:52:11.939Z,8.3
2022-09-28T06:22:21.412Z,8.49
2022-09-28T06:32:24.878Z,8.55
2022-09-28T06:37:26.949Z,8.64
2022-09-28T06:42:28.961Z,8.64
2022-09-28T06:47:30.390Z,8.6
2022-09-28T06:57:33.105Z,8.63
2022-09-28T07:07:36.238Z,8.88
2022-09-28T07:12:38.218Z,8.92
2022-09-28T07:17:54.793Z,9
2022-09-28T07:22:43.813Z,9.13
2022-09-28T07:27:44.154Z,9.22
2022-09-28T07:32:45.628Z,9.22
2022-09-28T07:37:47.269Z,9.28
2022-09-28T07:42:49.095Z,9.29
2022-09-28T07:47:51.165Z,9.14
2022-09-28T07:52:53.090Z,9.18
2022-09-28T07:57:55.112Z,9.33
2022-09-28T08:02:57.078Z,9.38
2022-09-28T08:07:58.648Z,9.45
2022-09-28T08:13:01.986Z,9.53
2022-09-28T08:18:02.866Z,9.64
2022-09-28T08:23:04.028Z,9.8
2022-09-28T08:28:05.595Z,9.85
2022-09-28T08:33:06.969Z,9.87
2022-09-28T08:38:08.512Z,10.01
2022-09-28T08:43:09.766Z,10.18
2022-09-28T08:48:11.842Z,10.38
2022-09-28T08:53:13.961Z,10.6
2022-09-28T08:58:15.233Z,10.68
2022-09-28T09:03:17.234Z,10.73
2022-09-28T09:08:19.045Z,10.53
2022-09-28T09:13:20.479Z,10.33
2022-09-28T09:18:22.484Z,10.14
2022-09-28T09:23:23.726Z,10.1
2022-09-28T09:28:25.536Z,10.17
2022-09-28T09:33:27.112Z,10.22
2022-09-28T09:38:29.068Z,10.38
2022-09-28T09:43:31.519Z,10.53
2022-09-28T09:48:32.294Z,10.68
2022-09-28T09:53:36.159Z,10.79
2022-09-28T09:58:36.258Z,10.9
2022-09-28T10:03:37.926Z,11.02
2022-09-28T10:08:39.181Z,11.03
2022-09-28T10:13:41.034Z,11.12
2022-09-28T10:18:42.884Z,11.24
2022-09-28T10:23:44.744Z,11.21
2022-09-28T10:28:46.690Z,11.26
2022-09-28T10:33:48.065Z,11.42
2022-09-28T10:38:49.819Z,11.52
2022-09-28T10:43:52.941Z,11.44
2022-09-28T10:48:52.866Z,11.49
2022-09-28T10:53:54.258Z,11.57
2022-09-28T10:58:55.730Z,11.59
2022-09-28T11:03:57.887Z,11.47
2022-09-28T11:08:59.407Z,11.41
2022-09-28T11:14:01.570Z,12.31
2022-09-28T11:19:02.979Z,13.05
2022-09-28T11:24:04.846Z,14.33
2022-09-28T11:29:06.890Z,14.19
2022-09-28T11:34:08.619Z,13.73
2022-09-28T11:39:10.162Z,13.47
2022-09-28T11:44:11.496Z,13.11
2022-09-28T11:49:13.157Z,12.94
2022-09-28T11:54:14.613Z,12.9
2022-09-28T11:59:16.205Z,12.85
2022-09-28T12:04:18.332Z,12.68
2022-09-28T12:09:19.873Z,12.56
2022-09-28T12:14:21.594Z,12.55
2022-09-28T12:19:22.974Z,12.5
2022-09-28T12:24:24.999Z,12.53
2022-09-28T12:29:26.356Z,12.53
2022-09-28T12:34:28.428Z,12.58
2022-09-28T12:39:41.186Z,12.59
2022-09-28T12:44:32.430Z,12.5
2022-09-28T12:50:20.388Z,12.51
2022-09-28T12:54:35.746Z,12.53
2022-09-28T12:59:37.339Z,12.42
2022-09-28T13:04:38.748Z,12.37
2022-09-28T13:09:40.790Z,12.41
2022-09-28T13:14:42.771Z,12.4
2022-09-28T13:19:44.610Z,12.3
2022-09-28T13:24:45.943Z,12.29
2022-09-28T13:29:47.174Z,12.28
2022-09-28T13:34:48.706Z,12.28
2022-09-28T13:39:50.578Z,12.24
2022-09-28T13:44:52.408Z,12.28
2022-09-28T13:49:53.564Z,12.32
2022-09-28T13:54:55.053Z,12.32
2022-09-28T13:59:56.464Z,12.36
2022-09-28T14:04:57.783Z,12.4
2022-09-28T14:09:59.899Z,12.38
2022-09-28T14:15:01.946Z,12.38
2022-09-28T14:20:04.014Z,12.39
2022-09-28T14:25:05.741Z,12.42
2022-09-28T14:30:06.889Z,12.27
2022-09-28T14:35:08.487Z,12.15
2022-09-28T14:40:09.765Z,12.13
2022-09-28T14:45:11.194Z,12.12
2022-09-28T14:50:14.744Z,12.14
2022-09-28T14:55:14.764Z,12.17
2022-09-28T15:00:16.908Z,12.05
2022-09-28T15:05:19.016Z,11.97
2022-09-28T15:10:23.045Z,11.95
2022-09-28T15:15:22.497Z,11.93
2022-09-28T15:20:23.695Z,11.91
2022-09-28T15:25:25.451Z,11.92
2022-09-28T15:30:26.927Z,11.96
2022-09-28T15:35:28.300Z,11.98
2022-09-28T15:40:29.628Z,11.95
2022-09-28T15:45:30.847Z,11.93
2022-09-28T15:50:32.570Z,11.74
2022-09-28T15:55:34.491Z,11.56
2022-09-28T16:00:36.010Z,11.48
2022-09-28T16:05:37.637Z,11.45
2022-09-28T16:10:39.372Z,11.44
2022-09-28T16:15:46.616Z,11.45
2022-09-28T16:20:42.791Z,11.47
2022-09-28T16:25:44.386Z,11.44
2022-09-28T16:30:46.470Z,11.39
2022-09-28T16:35:47.796Z,11.38
2022-09-28T16:40:49.527Z,11.36
2022-09-28T16:45:51.435Z,11.24
2022-09-28T16:50:52.658Z,11.11
2022-09-28T16:55:54.203Z,11.01
2022-09-28T17:00:56.003Z,10.9
2022-09-28T17:05:57.273Z,10.76
2022-09-28T17:16:01.259Z,10.41
2022-09-28T17:21:02.821Z,10.35
2022-09-28T17:26:04.897Z,10.32
2022-09-28T17:31:06.342Z,10.29
2022-09-28T17:36:08.268Z,10.21
2022-09-28T17:41:09.574Z,10.13
2022-09-28T17:46:10.869Z,10.08
2022-09-28T17:51:12.378Z,9.95
2022-09-28T17:56:13.785Z,9.92
2022-09-28T18:01:16.025Z,9.93
2022-09-28T18:06:17.566Z,9.81
2022-09-28T18:11:19.645Z,9.82
2022-09-28T18:16:21.197Z,9.79
2022-09-28T18:21:22.579Z,9.72
2022-09-28T18:26:24.356Z,9.67
2022-09-28T18:31:25.628Z,9.62
2022-09-28T18:36:26.966Z,9.6
2022-09-28T18:41:28.337Z,9.58
2022-09-28T18:46:29.707Z,9.54
2022-09-28T18:51:30.984Z,9.53
2022-09-28T18:56:33.061Z,9.52
2022-09-28T19:01:34.645Z,9.46
2022-09-28T19:06:36.630Z,9.39
2022-09-28T19:11:38.386Z,9.35
2022-09-28T19:16:39.874Z,9.37
2022-09-28T19:21:41.310Z,9.39
2022-09-28T19:26:43.047Z,9.37
2022-09-28T19:31:45.036Z,9.38
2022-09-28T19:36:46.401Z,9.39
2022-09-28T19:41:47.819Z,9.37
2022-09-28T19:46:49.312Z,9.38
2022-09-28T19:52:11.347Z,9.41
2022-09-28T19:56:52.566Z,9.38
2022-09-28T20:01:54.150Z,9.37
2022-09-28T20:06:55.317Z,9.39
2022-09-28T20:11:57.329Z,9.37
2022-09-28T20:16:59.167Z,9.35
2022-09-28T20:22:00.869Z,9.39
2022-09-28T20:27:01.959Z,9.28
2022-09-28T20:32:09.012Z,9.12
2022-09-28T20:37:05.894Z,9.08
2022-09-28T20:42:07.849Z,9.08
2022-09-28T20:47:09.726Z,9.07
2022-09-28T20:52:10.951Z,9.08
2022-09-28T21:32:24.421Z,9.21
2022-09-28T21:42:28.018Z,9.17
2022-09-28T21:52:31.263Z,9.13
2022-09-28T21:57:33.188Z,9.14
2022-09-28T22:12:38.462Z,9.18
2022-09-28T22:17:39.457Z,9.2
2022-09-28T22:22:40.839Z,9.2
2022-09-28T22:27:42.416Z,9.16
2022-09-28T22:32:50.435Z,9.16
2022-09-28T22:37:52.086Z,9.14
2022-09-28T22:42:54.125Z,9.1
2022-09-28T22:47:56.130Z,9.1
2022-09-28T22:52:57.856Z,9.09
2022-09-28T22:57:59.959Z,9.02
2022-09-28T23:03:01.436Z,8.97
2022-09-28T23:08:02.982Z,8.92
2022-09-28T23:13:04.353Z,8.81
2022-09-28T23:18:06.091Z,8.68
2022-09-28T23:23:07.741Z,8.64
2022-09-28T23:28:09.854Z,8.6
2022-09-28T23:33:11.696Z,8.6
2022-09-28T23:38:13.101Z,8.63
2022-09-28T23:43:15.219Z,8.64
2022-09-28T23:48:16.574Z,8.63
2022-09-28T23:53:18.183Z,8.68
2022-09-28T23:58:19.854Z,8.68
